»·PEaware :: UAL1430 PHOG-KDEN

UAL1430 :: PHOG-KDEN

FLIGHT INFORMATION

Flight Status: Arrived
Operator:
United Airlines
More flights by this operator :: More flights under this callsign
Pilot: Thomas C. (28508)
Aircraft: BOEING 777-200
(B772)
More flights by this aircraft type
Origin: PHOG Kahului
United States
Destination: KDEN Denver Intl
United States
More flights between these airports :: More routes between these airports
Route: HIAKA1 ROSAH CLUTS R465 CORTT/N0473F410 R465 CINNY JAGWA KO45G KICHI KU51M JNC POWDR1
File this flight plan on PilotEdge
Remarks: PBN / A1B1C1D1L1O1S2 NAV / RNVD1E2A1 DOF / 200330 REG / N795UA EET / KZAK0031 KZOA0341 KZLC0429 KZDV0519 SEL / ASFG OPR / UAL PER / D RALT / PHTO KSFO RMK / TCAS
Altitude:
(Current/Filed)
39,000ft
Speed:
(Current/Filed)
481kts
Departed: 29-Mar-20 07:19 PM
Arrived: 30-Mar-20 01:12 AM
Distance/Time
Traveled:
2864nm/5:53
Distance/Time
To Go:
Arrived

Flight Plot

Page will automatically refresh every two minutes.


Map Options




Map Legend


Flown Route
Filed Route
Departure Airport
Arrival Airport
Navaid (VOR, NDB)
Fix

Horizontal Profiles

Position Reports

Time Latitude Longitude Heading Altitude Ground
Speed
29-Mar-20 18:31 20.895216 -156.434946 303 71ft 0kts
29-Mar-20 18:32 20.895216 -156.434946 303 71ft 0kts
29-Mar-20 18:33 20.895216 -156.434946 303 71ft 0kts
29-Mar-20 18:34 20.895216 -156.434946 303 71ft 0kts
29-Mar-20 18:35 20.895216 -156.434946 303 71ft 0kts
29-Mar-20 18:36 20.895216 -156.434946 303 71ft 0kts
29-Mar-20 18:37 20.895216 -156.434946 303 71ft 0kts
29-Mar-20 18:38 20.895216 -156.434946 303 71ft 0kts
29-Mar-20 18:39 20.895216 -156.434946 303 71ft 0kts
29-Mar-20 18:40 20.895216 -156.434946 303 71ft 0kts
29-Mar-20 18:41 20.895216 -156.434946 303 71ft 0kts
29-Mar-20 18:42 20.895216 -156.434946 303 71ft 0kts
29-Mar-20 18:43 20.895216 -156.434946 303 71ft 0kts
29-Mar-20 18:44 20.895216 -156.434946 303 71ft 0kts
29-Mar-20 18:45 20.895216 -156.434946 303 71ft 0kts
29-Mar-20 18:46 20.895216 -156.434946 303 71ft 0kts
29-Mar-20 18:47 20.895216 -156.434946 303 71ft 0kts
29-Mar-20 18:48 20.895216 -156.434946 303 71ft 0kts
29-Mar-20 18:49 20.895216 -156.434946 303 71ft 0kts
29-Mar-20 18:50 20.895216 -156.434946 303 71ft 0kts
29-Mar-20 18:51 20.895216 -156.434946 303 71ft 0kts
29-Mar-20 18:52 20.895216 -156.434946 303 71ft 0kts
29-Mar-20 18:53 20.895216 -156.434946 303 71ft 0kts
29-Mar-20 18:54 20.895216 -156.434946 303 71ft 0kts
29-Mar-20 18:55 20.895216 -156.434946 303 71ft 0kts
29-Mar-20 18:56 20.895216 -156.434946 303 71ft 0kts
29-Mar-20 18:57 20.895216 -156.434946 303 71ft 0kts
29-Mar-20 18:58 20.895216 -156.434946 303 71ft 0kts
29-Mar-20 18:59 20.895216 -156.434946 303 72ft 0kts
29-Mar-20 19:00 20.895216 -156.434946 303 71ft 0kts
29-Mar-20 19:01 20.895216 -156.434946 303 71ft 0kts
29-Mar-20 19:02 20.895216 -156.434946 303 71ft 0kts
29-Mar-20 19:03 20.895216 -156.434946 303 71ft 0kts
29-Mar-20 19:04 20.895216 -156.434946 303 71ft 0kts
29-Mar-20 19:05 20.895216 -156.434946 303 71ft 0kts
29-Mar-20 19:06 20.895216 -156.434946 303 71ft 0kts
29-Mar-20 19:07 20.895216 -156.434946 303 71ft 0kts
29-Mar-20 19:08 20.895216 -156.434946 303 71ft 0kts
29-Mar-20 19:09 20.895215 -156.434946 303 71ft 0kts
29-Mar-20 19:10 20.895002 -156.434618 304 71ft 2kts
29-Mar-20 19:11 20.894671 -156.434109 305 71ft 0kts
29-Mar-20 19:12 20.894712 -156.433772 215 71ft 0kts
29-Mar-20 19:13 20.894711 -156.433772 215 71ft 0kts
29-Mar-20 19:14 20.893856 -156.434420 215 71ft 11kts
29-Mar-20 19:15 20.890498 -156.436947 215 71ft 9kts
29-Mar-20 19:16 20.890037 -156.437074 154 71ft 0kts
29-Mar-20 19:17 20.889875 -156.435793 36 71ft 0kts
29-Mar-20 19:18 20.909239 -156.421609 36 815ft 143kts
29-Mar-20 19:19 20.941791 -156.397191 38 3216ft 152kts
29-Mar-20 19:20 20.989610 -156.361388 39 5060ft 253kts
29-Mar-20 19:21 21.054575 -156.306592 38 8815ft 296kts
29-Mar-20 19:22 21.123299 -156.249382 37 11451ft 356kts
29-Mar-20 19:23 21.208027 -156.178750 36 15325ft 385kts
29-Mar-20 19:24 21.295539 -156.105600 34 18911ft 403kts
29-Mar-20 19:25 21.389716 -156.026801 34 21967ft 426kts
29-Mar-20 19:26 21.485481 -155.946502 33 24610ft 447kts
29-Mar-20 19:27 21.584871 -155.862932 31 27073ft 465kts
29-Mar-20 19:28 21.688187 -155.776009 29 29317ft 480kts
29-Mar-20 19:29 21.795047 -155.686000 28 31291ft 498kts
29-Mar-20 19:30 21.906020 -155.592271 28 33198ft 518kts
29-Mar-20 19:31 22.020561 -155.495248 28 35474ft 525kts
29-Mar-20 19:32 22.133811 -155.399192 27 37848ft 519kts
29-Mar-20 19:33 22.246618 -155.303296 27 39007ft 515kts
29-Mar-20 19:34 22.359229 -155.207399 27 39017ft 517kts
29-Mar-20 19:36 22.471784 -155.111307 28 39019ft 516kts
29-Mar-20 19:37 22.583823 -155.015453 28 39020ft 515kts
29-Mar-20 19:38 22.695815 -154.919432 28 39021ft 514kts
29-Mar-20 19:39 22.807590 -154.823391 28 39022ft 514kts
29-Mar-20 19:40 22.919294 -154.727205 28 39023ft 513kts
29-Mar-20 19:41 23.023947 -154.620248 47 39032ft 536kts
29-Mar-20 19:42 23.106494 -154.485445 48 39029ft 537kts
29-Mar-20 19:43 23.188662 -154.350336 48 39036ft 536kts
29-Mar-20 19:44 23.270753 -154.214960 49 39018ft 536kts
29-Mar-20 19:45 23.352428 -154.079918 49 39021ft 535kts
29-Mar-20 19:46 23.434146 -153.944446 49 39023ft 535kts
29-Mar-20 19:47 23.515603 -153.809047 49 39024ft 534kts
29-Mar-20 19:48 23.596541 -153.674150 49 39026ft 533kts
29-Mar-20 19:49 23.677567 -153.538744 49 39028ft 532kts
29-Mar-20 19:50 23.758193 -153.403642 49 39029ft 532kts
29-Mar-20 19:51 23.838939 -153.268597 50 39015ft 531kts
29-Mar-20 19:52 23.919366 -153.133951 50 39016ft 530kts
29-Mar-20 19:53 23.999831 -152.998875 50 39018ft 529kts
29-Mar-20 19:53 24.066640 -152.886443 50 39020ft 529kts
29-Mar-20 19:55 24.159849 -152.729160 50 39027ft 528kts
29-Mar-20 19:56 24.239579 -152.594222 50 39028ft 527kts
29-Mar-20 19:57 24.318742 -152.459873 50 39030ft 526kts
29-Mar-20 19:57 24.384661 -152.347720 51 39030ft 525kts
29-Mar-20 19:59 24.476943 -152.190276 51 39019ft 525kts
29-Mar-20 19:59 24.542380 -152.078327 51 39019ft 524kts
29-Mar-20 20:00 24.620899 -151.943654 51 39021ft 523kts
29-Mar-20 20:01 24.699077 -151.809193 52 39023ft 522kts
29-Mar-20 20:02 24.776925 -151.674923 52 39024ft 522kts
29-Mar-20 20:03 24.854545 -151.540674 52 39025ft 521kts
29-Mar-20 20:04 24.932008 -151.406319 52 39026ft 520kts
29-Mar-20 20:05 25.009368 -151.271777 53 39016ft 519kts
29-Mar-20 20:06 25.086175 -151.137803 53 39017ft 518kts
29-Mar-20 20:07 25.163020 -151.003386 53 39022ft 517kts
29-Mar-20 20:08 25.239482 -150.869264 53 39023ft 517kts
29-Mar-20 20:09 25.315781 -150.735046 53 39024ft 516kts
29-Mar-20 20:10 25.391761 -150.601008 53 39025ft 515kts
29-Mar-20 20:11 25.467504 -150.467004 53 39026ft 514kts
29-Mar-20 20:12 25.543257 -150.332601 54 39076ft 514kts
29-Mar-20 20:13 25.618795 -150.198188 54 39032ft 513kts
29-Mar-20 20:14 25.694153 -150.063660 53 39074ft 517kts
29-Mar-20 20:15 25.769794 -149.928329 54 39074ft 516kts
29-Mar-20 20:16 25.845013 -149.793313 54 39076ft 515kts
29-Mar-20 20:17 25.920041 -149.658239 54 39077ft 514kts
29-Mar-20 20:18 25.994880 -149.523109 54 39078ft 514kts
29-Mar-20 20:19 26.069355 -149.388238 54 39079ft 513kts
29-Mar-20 20:20 26.144091 -149.252503 55 39073ft 513kts
29-Mar-20 20:21 26.218377 -149.117175 55 39075ft 512kts
29-Mar-20 20:22 26.292341 -148.982035 55 39076ft 512kts
29-Mar-20 20:23 26.366306 -148.846486 55 39077ft 511kts
29-Mar-20 20:24 26.440131 -148.710785 55 39077ft 511kts
29-Mar-20 20:25 26.513575 -148.575377 55 39078ft 510kts
29-Mar-20 20:26 26.586612 -148.440312 56 39079ft 510kts
29-Mar-20 20:27 26.659198 -148.305683 56 39072ft 509kts
29-Mar-20 20:28 26.731875 -148.170465 56 39074ft 509kts
29-Mar-20 20:29 26.804498 -148.034939 56 39074ft 508kts
29-Mar-20 20:30 26.876958 -147.899302 57 39075ft 508kts
29-Mar-20 20:31 26.949227 -147.763606 57 39076ft 507kts
29-Mar-20 20:32 27.021196 -147.628058 57 39077ft 507kts
29-Mar-20 20:33 27.092915 -147.492561 57 39078ft 506kts
29-Mar-20 20:34 27.164495 -147.356925 57 39079ft 506kts
29-Mar-20 20:35 27.236275 -147.220464 58 39075ft 505kts
29-Mar-20 20:36 27.307513 -147.084630 58 39075ft 505kts
29-Mar-20 20:37 27.378788 -146.948299 58 39075ft 505kts
29-Mar-20 20:38 27.449593 -146.812439 58 39076ft 504kts
29-Mar-20 20:39 27.520175 -146.676580 58 39076ft 504kts
29-Mar-20 20:40 27.590736 -146.540333 58 39077ft 503kts
29-Mar-20 20:41 27.660946 -146.404331 58 39077ft 503kts
29-Mar-20 20:42 27.731231 -146.267756 59 39074ft 502kts
29-Mar-20 20:43 27.801218 -146.131319 59 39075ft 502kts
29-Mar-20 20:44 27.870838 -145.995162 59 39075ft 502kts
29-Mar-20 20:45 27.940528 -145.858429 59 39076ft 501kts
29-Mar-20 20:46 28.009639 -145.722395 59 39076ft 501kts
29-Mar-20 20:47 28.078876 -145.585670 59 39077ft 501kts
29-Mar-20 20:48 28.147793 -145.449148 59 39076ft 500kts
29-Mar-20 20:49 28.216660 -145.312274 60 39073ft 500kts
29-Mar-20 20:50 28.285275 -145.175442 60 39074ft 500kts
29-Mar-20 20:51 28.353673 -145.038605 60 39075ft 499kts
29-Mar-20 20:52 28.421965 -144.901521 60 39075ft 499kts
29-Mar-20 20:53 28.490130 -144.764247 60 39075ft 499kts
29-Mar-20 20:54 28.557895 -144.627324 60 39076ft 498kts
29-Mar-20 20:55 28.625646 -144.489976 60 39076ft 498kts
29-Mar-20 20:56 28.693149 -144.352670 60 39077ft 498kts
29-Mar-20 20:57 28.760675 -144.214863 61 39075ft 497kts
29-Mar-20 20:58 28.828073 -144.076849 61 39076ft 497kts
29-Mar-20 20:59 28.894886 -143.939571 61 39076ft 497kts
29-Mar-20 21:00 28.961782 -143.801656 61 39076ft 497kts
29-Mar-20 21:01 29.028667 -143.663293 61 39077ft 496kts
29-Mar-20 21:02 29.094939 -143.525730 61 39077ft 496kts
29-Mar-20 21:03 29.161440 -143.387235 61 39075ft 496kts
29-Mar-20 21:04 29.227605 -143.248945 61 39074ft 495kts
29-Mar-20 21:05 29.293452 -143.110853 62 39101ft 495kts
29-Mar-20 21:06 29.359111 -142.972679 62 39102ft 495kts
29-Mar-20 21:07 29.424802 -142.833958 62 39102ft 495kts
29-Mar-20 21:08 29.490274 -142.695218 62 39102ft 494kts
29-Mar-20 21:09 29.555401 -142.556724 62 39102ft 494kts
29-Mar-20 21:10 29.620377 -142.418069 62 39103ft 494kts
29-Mar-20 21:11 29.685260 -142.279125 62 39102ft 494kts
29-Mar-20 21:12 29.749993 -142.140013 62 39102ft 493kts
29-Mar-20 21:13 29.814613 -142.000650 62 39103ft 493kts
29-Mar-20 21:14 29.878961 -141.861376 62 39103ft 493kts
29-Mar-20 21:15 29.943064 -141.722138 62 39103ft 493kts
29-Mar-20 21:16 30.007244 -141.582231 62 39103ft 492kts
29-Mar-20 21:17 30.071303 -141.442078 62 39103ft 493kts
29-Mar-20 21:18 30.135133 -141.301936 63 39207ft 493kts
29-Mar-20 21:19 30.199211 -141.160728 62 39209ft 493kts
29-Mar-20 21:20 30.262723 -141.020257 62 39210ft 493kts
29-Mar-20 21:21 30.326101 -140.879569 62 39210ft 493kts
29-Mar-20 21:22 30.389191 -140.739004 62 39210ft 494kts
29-Mar-20 21:23 30.452290 -140.597739 62 39210ft 494kts
29-Mar-20 21:24 30.515294 -140.456103 62 39211ft 494kts
29-Mar-20 21:25 30.578207 -140.314144 63 39210ft 494kts
29-Mar-20 21:26 30.640755 -140.172477 63 39210ft 494kts
29-Mar-20 21:27 30.703277 -140.030337 63 39210ft 494kts
29-Mar-20 21:28 30.765435 -139.888494 63 39211ft 495kts
29-Mar-20 21:29 30.827832 -139.745560 63 39211ft 495kts
29-Mar-20 21:30 30.889890 -139.602857 63 39211ft 496kts
29-Mar-20 21:31 30.952116 -139.459219 63 39207ft 497kts
29-Mar-20 21:32 31.014145 -139.315487 63 39210ft 497kts
29-Mar-20 21:33 31.076014 -139.171574 63 39211ft 498kts
29-Mar-20 21:34 31.137599 -139.027752 63 39209ft 498kts
29-Mar-20 21:35 31.199319 -138.883055 63 39210ft 499kts
29-Mar-20 21:36 31.261004 -138.737872 63 39210ft 499kts
29-Mar-20 21:37 31.322518 -138.592516 63 39211ft 500kts
29-Mar-20 21:38 31.384107 -138.446401 63 39211ft 501kts
29-Mar-20 21:39 31.445027 -138.301298 64 39209ft 501kts
29-Mar-20 21:40 31.506121 -138.155189 64 39210ft 502kts
29-Mar-20 21:41 31.567299 -138.008293 64 39210ft 502kts
29-Mar-20 21:42 31.628335 -137.861139 64 39211ft 503kts
29-Mar-20 21:43 31.689027 -137.714216 64 39211ft 503kts
29-Mar-20 21:44 31.749983 -137.566049 64 39212ft 504kts
29-Mar-20 21:45 31.810787 -137.417637 64 39213ft 504kts
29-Mar-20 21:46 31.871225 -137.269514 64 39210ft 505kts
29-Mar-20 21:47 31.931831 -137.120354 64 39211ft 505kts
29-Mar-20 21:48 31.992025 -136.971579 64 39211ft 505kts
29-Mar-20 21:49 32.052395 -136.821741 64 39212ft 506kts
29-Mar-20 21:50 32.112565 -136.671765 64 39210ft 506kts
29-Mar-20 21:51 32.172590 -136.521521 64 39211ft 507kts
29-Mar-20 21:52 32.232377 -136.371224 64 39212ft 507kts
29-Mar-20 21:53 32.292104 -136.220424 64 39209ft 508kts
29-Mar-20 21:54 32.351720 -136.069256 64 39209ft 508kts
29-Mar-20 21:56 32.411240 -135.917674 64 39210ft 508kts
29-Mar-20 21:57 32.470500 -135.766090 64 39211ft 509kts
29-Mar-20 21:58 32.529591 -135.614278 64 39212ft 509kts
29-Mar-20 21:59 32.588723 -135.461684 64 39213ft 510kts
29-Mar-20 22:00 32.647551 -135.309212 65 39208ft 510kts
29-Mar-20 22:01 32.706347 -135.156123 65 39210ft 510kts
29-Mar-20 22:02 32.764888 -135.003019 65 39210ft 511kts
29-Mar-20 22:03 32.823520 -134.848983 65 39211ft 511kts
29-Mar-20 22:04 32.881869 -134.694994 65 39212ft 512kts
29-Mar-20 22:05 32.940051 -134.540739 64 39649ft 511kts
29-Mar-20 22:06 32.997957 -134.386532 65 40655ft 511kts
29-Mar-20 22:07 33.055931 -134.231426 65 41213ft 516kts
29-Mar-20 22:08 33.113891 -134.075613 65 41208ft 515kts
29-Mar-20 22:09 33.171774 -133.919291 65 41210ft 515kts
29-Mar-20 22:10 33.229345 -133.763081 65 41211ft 516kts
29-Mar-20 22:11 33.286996 -133.605913 65 41212ft 516kts
29-Mar-20 22:12 33.344363 -133.448864 65 41213ft 517kts
29-Mar-20 22:13 33.401609 -133.291400 65 41208ft 517kts
29-Mar-20 22:14 33.458758 -133.133423 65 41209ft 518kts
29-Mar-20 22:15 33.515719 -132.975214 65 41210ft 518kts
29-Mar-20 22:15 33.563134 -132.842932 65 41211ft 518kts
29-Mar-20 22:17 33.629112 -132.657960 65 41213ft 519kts
29-Mar-20 22:18 33.685674 -132.498538 65 41214ft 519kts
29-Mar-20 22:18 33.732490 -132.365988 65 41215ft 519kts
29-Mar-20 22:20 33.797892 -132.179908 66 41209ft 520kts
29-Mar-20 22:21 33.854061 -132.019219 65 41210ft 520kts
29-Mar-20 22:21 33.900492 -131.885778 65 41211ft 520kts
29-Mar-20 22:22 33.956259 -131.724759 65 41212ft 520kts
29-Mar-20 22:24 34.020839 -131.537267 65 41214ft 521kts
29-Mar-20 22:24 34.066921 -131.402794 65 41215ft 521kts
29-Mar-20 22:25 34.121854 -131.241758 66 41208ft 521kts
29-Mar-20 22:26 34.176832 -131.079741 66 41209ft 521kts
29-Mar-20 22:28 34.240662 -130.890586 66 41211ft 522kts
29-Mar-20 22:28 34.285906 -130.755806 66 41212ft 522kts
29-Mar-20 22:29 34.340357 -130.592822 66 41213ft 522kts
29-Mar-20 22:30 34.394563 -130.429712 65 41215ft 522kts
29-Mar-20 22:31 34.448494 -130.266569 66 41208ft 522kts
29-Mar-20 22:32 34.502223 -130.103164 66 41209ft 523kts
29-Mar-20 22:34 34.564514 -129.912621 66 41211ft 523kts
29-Mar-20 22:34 34.608971 -129.775900 66 41212ft 523kts
29-Mar-20 22:35 34.661972 -129.612093 66 41213ft 523kts
29-Mar-20 22:36 34.714874 -129.447701 66 41215ft 523kts
29-Mar-20 22:37 34.767616 -129.282924 66 41207ft 523kts
29-Mar-20 22:38 34.820020 -129.118276 66 41208ft 523kts
29-Mar-20 22:39 34.872237 -128.953316 66 41210ft 523kts
29-Mar-20 22:40 34.924305 -128.787913 66 41211ft 524kts
29-Mar-20 22:41 34.976201 -128.622127 66 41212ft 524kts
29-Mar-20 22:42 35.027680 -128.456755 66 41214ft 524kts
29-Mar-20 22:43 35.078751 -128.291797 66 41205ft 525kts
29-Mar-20 22:44 35.130013 -128.125234 66 41209ft 526kts
29-Mar-20 22:45 35.181105 -127.958289 66 41211ft 526kts
29-Mar-20 22:46 35.232113 -127.790659 66 41213ft 527kts
29-Mar-20 22:47 35.282976 -127.622529 66 41214ft 527kts
29-Mar-20 22:48 35.333484 -127.454598 66 41216ft 528kts
29-Mar-20 22:49 35.384009 -127.285633 67 41207ft 528kts
29-Mar-20 22:50 35.434296 -127.116430 67 41209ft 529kts
29-Mar-20 22:51 35.484367 -126.946966 66 41211ft 530kts
29-Mar-20 22:52 35.534345 -126.776797 66 41212ft 530kts
29-Mar-20 22:53 35.583973 -126.606798 66 41214ft 531kts
29-Mar-20 22:54 35.633479 -126.436186 66 41216ft 531kts
29-Mar-20 22:55 35.682839 -126.265047 67 41207ft 532kts
29-Mar-20 22:56 35.732028 -126.093667 66 41209ft 531kts
29-Mar-20 22:57 35.789514 -125.926346 63 41210ft 530kts
29-Mar-20 22:58 35.846732 -125.758962 63 41212ft 531kts
29-Mar-20 22:59 35.903621 -125.591597 63 41213ft 531kts
29-Mar-20 23:00 35.960292 -125.423947 63 41215ft 531kts
29-Mar-20 23:01 36.017066 -125.255073 63 41206ft 532kts
29-Mar-20 23:02 36.073491 -125.086270 63 41207ft 532kts
29-Mar-20 23:03 36.129756 -124.916999 63 41212ft 533kts
29-Mar-20 23:04 36.185488 -124.747668 65 41214ft 534kts
29-Mar-20 23:05 36.237052 -124.574911 65 41222ft 534kts
29-Mar-20 23:06 36.288382 -124.402296 65 41245ft 535kts
29-Mar-20 23:07 36.339629 -124.228896 66 41235ft 535kts
29-Mar-20 23:08 36.390621 -124.055280 66 41237ft 535kts
29-Mar-20 23:09 36.441379 -123.881382 66 41239ft 536kts
29-Mar-20 23:10 36.491870 -123.707306 66 41241ft 536kts
29-Mar-20 23:11 36.541990 -123.533410 66 41243ft 536kts
29-Mar-20 23:12 36.591907 -123.359117 66 41245ft 536kts
29-Mar-20 23:13 36.641861 -123.183580 66 41234ft 537kts
29-Mar-20 23:14 36.691446 -123.008198 66 41236ft 537kts
29-Mar-20 23:15 36.740680 -122.832927 66 41238ft 537kts
29-Mar-20 23:16 36.789767 -122.657036 66 41240ft 537kts
29-Mar-20 23:17 36.838501 -122.481258 66 41242ft 537kts
29-Mar-20 23:18 36.887218 -122.304414 67 41230ft 537kts
29-Mar-20 23:19 36.935410 -122.128245 67 41234ft 538kts
29-Mar-20 23:20 36.983540 -121.951139 67 41236ft 538kts
29-Mar-20 23:21 37.031353 -121.774014 67 41238ft 538kts
29-Mar-20 23:22 37.078915 -121.596617 67 41240ft 538kts
29-Mar-20 23:23 37.126178 -121.419146 67 41245ft 538kts
29-Mar-20 23:24 37.173279 -121.241047 68 41235ft 538kts
29-Mar-20 23:25 37.219954 -121.063328 68 41208ft 538kts
29-Mar-20 23:26 37.266558 -120.884654 68 41212ft 538kts
29-Mar-20 23:27 37.312812 -120.706070 68 41214ft 538kts
29-Mar-20 23:28 37.359929 -120.527909 67 41216ft 538kts
29-Mar-20 23:29 37.407447 -120.350030 67 41218ft 538kts
29-Mar-20 23:30 37.454875 -120.171245 68 41208ft 538kts
29-Mar-20 23:31 37.501060 -119.992022 72 41207ft 540kts
29-Mar-20 23:32 37.534152 -119.807812 74 41212ft 541kts
29-Mar-20 23:33 37.566693 -119.623015 74 41160ft 541kts
29-Mar-20 23:34 37.598971 -119.437842 74 41162ft 541kts
29-Mar-20 23:35 37.630729 -119.253980 75 41153ft 540kts
29-Mar-20 23:36 37.662375 -119.068686 75 41155ft 540kts
29-Mar-20 23:37 37.693716 -118.883444 75 41157ft 540kts
29-Mar-20 23:38 37.724735 -118.698244 75 41159ft 540kts
29-Mar-20 23:39 37.755474 -118.512827 75 41161ft 540kts
29-Mar-20 23:40 37.785487 -118.329940 76 41127ft 540kts
29-Mar-20 23:41 37.815735 -118.143693 76 41129ft 540kts
29-Mar-20 23:42 37.845565 -117.958039 76 41129ft 540kts
29-Mar-20 23:43 37.875213 -117.771580 76 41131ft 540kts
29-Mar-20 23:44 37.904428 -117.585840 76 41133ft 540kts
29-Mar-20 23:45 37.933471 -117.399179 76 41135ft 540kts
29-Mar-20 23:46 37.959046 -117.233131 77 41126ft 540kts
29-Mar-20 23:47 37.991286 -117.047758 75 41128ft 539kts
29-Mar-20 23:48 38.024654 -116.862637 75 41130ft 539kts
29-Mar-20 23:49 38.057687 -116.677544 75 41132ft 539kts
29-Mar-20 23:50 38.090420 -116.492327 75 41134ft 538kts
29-Mar-20 23:51 38.122790 -116.307447 76 41124ft 538kts
29-Mar-20 23:52 38.154677 -116.123383 76 41128ft 538kts
29-Mar-20 23:53 38.186546 -115.937650 76 41130ft 538kts
29-Mar-20 23:54 38.218160 -115.751532 76 41108ft 538kts
29-Mar-20 23:55 38.249339 -115.566089 76 41107ft 538kts
29-Mar-20 23:56 38.280317 -115.379936 76 41108ft 538kts
29-Mar-20 23:57 38.310799 -115.194855 77 41100ft 537kts
29-Mar-20 23:58 38.341144 -115.008666 77 41102ft 537kts
29-Mar-20 23:59 38.371203 -114.822275 77 41104ft 538kts
30-Mar-20 00:00 38.400885 -114.636241 77 41106ft 538kts
30-Mar-20 00:01 38.430408 -114.449194 77 41108ft 538kts
30-Mar-20 00:02 38.459670 -114.261788 78 41099ft 539kts
30-Mar-20 00:03 38.488672 -114.073916 78 41075ft 539kts
30-Mar-20 00:04 38.514891 -113.885591 80 41076ft 539kts
30-Mar-20 00:05 38.539228 -113.696451 80 41078ft 540kts
30-Mar-20 00:06 38.563219 -113.507593 80 41080ft 540kts
30-Mar-20 00:07 38.586944 -113.318367 81 41072ft 540kts
30-Mar-20 00:08 38.610522 -113.127631 81 41074ft 541kts
30-Mar-20 00:09 38.633659 -112.937899 81 41076ft 541kts
30-Mar-20 00:10 38.656520 -112.747783 81 41078ft 541kts
30-Mar-20 00:11 38.679095 -112.557364 81 41080ft 541kts
30-Mar-20 00:12 38.701278 -112.367546 81 41082ft 542kts
30-Mar-20 00:13 38.723371 -112.175733 82 41078ft 542kts
30-Mar-20 00:14 38.744986 -111.985226 82 41103ft 542kts
30-Mar-20 00:15 38.766368 -111.793925 82 41105ft 543kts
30-Mar-20 00:16 38.787451 -111.602396 82 41107ft 543kts
30-Mar-20 00:17 38.808215 -111.410801 82 41105ft 543kts
30-Mar-20 00:18 38.828702 -111.218803 83 41101ft 543kts
30-Mar-20 00:19 38.848835 -111.027023 83 41184ft 544kts
30-Mar-20 00:20 38.868672 -110.834970 83 41186ft 544kts
30-Mar-20 00:21 38.888221 -110.642543 83 41189ft 544kts
30-Mar-20 00:23 38.907421 -110.450341 83 41191ft 544kts
30-Mar-20 00:24 38.926363 -110.257564 84 41022ft 543kts
30-Mar-20 00:25 38.944971 -110.064686 84 41022ft 545kts
30-Mar-20 00:26 38.963265 -109.871687 84 41024ft 545kts
30-Mar-20 00:27 38.981293 -109.678067 84 41027ft 545kts
30-Mar-20 00:28 38.998923 -109.485201 84 41029ft 546kts
30-Mar-20 00:29 39.016203 -109.292771 85 41018ft 546kts
30-Mar-20 00:30 39.033279 -109.098701 85 41050ft 546kts
30-Mar-20 00:31 39.050067 -108.904247 85 41052ft 547kts
30-Mar-20 00:32 39.050981 -108.710417 98 41055ft 543kts
30-Mar-20 00:33 39.032866 -108.517466 99 41056ft 543kts
30-Mar-20 00:34 39.014019 -108.326922 100 41051ft 544kts
30-Mar-20 00:35 38.994515 -108.133250 100 41053ft 544kts
30-Mar-20 00:36 38.974761 -107.940369 100 41051ft 545kts
30-Mar-20 00:37 38.954718 -107.747877 100 41053ft 546kts
30-Mar-20 00:38 38.934248 -107.554447 100 41093ft 546kts
30-Mar-20 00:39 38.913467 -107.361218 100 41085ft 548kts
30-Mar-20 00:40 38.892300 -107.167407 101 41048ft 548kts
30-Mar-20 00:41 38.870775 -106.973470 101 40855ft 552kts
30-Mar-20 00:41 38.852546 -106.811236 101 38915ft 550kts
30-Mar-20 00:43 38.827199 -106.585390 98 36187ft 550kts
30-Mar-20 00:43 38.839287 -106.422445 75 34218ft 557kts
30-Mar-20 00:45 38.933810 -106.232993 37 31245ft 534kts
30-Mar-20 00:45 39.016113 -106.116457 50 29199ft 524kts
30-Mar-20 00:46 39.104315 -105.970338 51 26837ft 509kts
30-Mar-20 00:48 39.203247 -105.804957 52 24204ft 488kts
30-Mar-20 00:48 39.271328 -105.690621 52 22388ft 473kts
30-Mar-20 00:50 39.358314 -105.543758 52 20032ft 382kts
30-Mar-20 00:50 39.409360 -105.457604 52 19075ft 353kts
30-Mar-20 00:51 39.468682 -105.356925 52 19081ft 350kts
30-Mar-20 00:52 39.528440 -105.255180 53 19074ft 354kts
30-Mar-20 00:53 39.588255 -105.153008 53 19075ft 354kts
30-Mar-20 00:54 39.647908 -105.050784 53 19048ft 354kts
30-Mar-20 00:55 39.707190 -104.948861 53 19077ft 354kts
30-Mar-20 00:56 39.766510 -104.846538 53 18777ft 351kts
30-Mar-20 00:58 39.866092 -104.793256 0 18288ft 349kts
30-Mar-20 00:58 39.947791 -104.788148 0 16558ft 358kts
30-Mar-20 00:59 40.033517 -104.782756 359 16089ft 279kts
30-Mar-20 01:00 40.110587 -104.777991 359 14398ft 276kts
30-Mar-20 01:01 40.186107 -104.773315 0 12663ft 268kts
30-Mar-20 01:02 40.258066 -104.767041 34 11076ft 255kts
30-Mar-20 01:03 40.247830 -104.699344 167 10837ft 232kts
30-Mar-20 01:04 40.184058 -104.682613 183 9909ft 221kts
30-Mar-20 01:05 40.129520 -104.683981 182 9122ft 187kts
30-Mar-20 01:06 40.078983 -104.684527 182 8523ft 185kts
30-Mar-20 01:07 40.028092 -104.685251 183 7699ft 172kts
30-Mar-20 01:08 39.985516 -104.685942 184 7000ft 154kts
30-Mar-20 01:09 39.944859 -104.686316 181 6313ft 140kts
30-Mar-20 01:10 39.905810 -104.686682 180 5578ft 141kts
30-Mar-20 01:11 39.879015 -104.686955 172 5372ft 39kts
30-Mar-20 01:12 39.871953 -104.684973 180 5367ft 18kts
30-Mar-20 01:13 39.868981 -104.683844 180 5369ft 25kts
30-Mar-20 01:14 39.861964 -104.683929 181 5382ft 23kts
30-Mar-20 01:15 39.856886 -104.683443 101 5382ft 11kts
30-Mar-20 01:16 39.856896 -104.679569 36 5388ft 9kts
30-Mar-20 01:17 39.857316 -104.674868 90 5388ft 17kts
30-Mar-20 01:18 39.858018 -104.672788 359 5388ft 0kts
30-Mar-20 01:19 39.858033 -104.672788 359 5388ft 0kts

Navigation Log

Ident Type
Flight plan parsing failed, navigation log unavailable